Time;durP1;ratioP1;P1;durP2;ratioP2;P2;SDS_P1;SDS_P2;PMS_P1;PMS_P2;Temp;Humidity;BMP_temperature;BMP_pressure;BME280_temperature;BME280_humidity;BME280_pressure;Samples;Min_cycle;Max_cycle;Signal;HPM_P1;HPM_P2
2023/01/30 00:00:59;;;;;;;;;;;;;;;-144.99;100.00;52550.00;5047706;28;19956;-75
2023/01/30 00:03:26;;;;;;;;;;;;;;;-144.99;100.00;52545.94;5036937;28;19997;-76
2023/01/30 00:05:52;;;;;;;;;;;;;;;-144.99;100.00;52531.66;5054563;28;20440;-74
2023/01/30 00:08:21;;;;;;;;;;;;;;;-144.99;100.00;52562.25;5036126;28;19989;-72
2023/01/30 00:10:48;;;;;;;;;;;;;;;-144.99;100.00;52529.63;5050846;28;19986;-74
2023/01/30 00:13:14;;;;;;;;;;;;;;;-144.99;100.00;52541.84;5056018;28;20457;-76
2023/01/30 00:15:41;;;;;;;;;;;;;;;-144.99;100.00;52511.28;5055826;28;20042;-75
2023/01/30 00:18:08;;;;;;;;;;;;;;;-144.99;100.00;52547.97;5047945;28;19972;-74
2023/01/30 00:20:34;;;;;;;;;;;;;;;-144.99;100.00;52556.13;5054850;28;19962;-75
2023/01/30 00:23:01;;;;;;;;;;;;;;;-144.99;100.00;52509.25;5060245;28;20003;-74
2023/01/30 00:25:30;;;;;;;;;;;;;;;-144.99;100.00;52517.41;5064474;28;19944;-75
2023/01/30 00:27:58;;;;;;;;;;;;;;;-144.99;100.00;52541.84;5051517;28;19949;-76
2023/01/30 00:30:24;;;;;;;;;;;;;;;-144.99;100.00;52558.16;5050112;28;20010;-76
2023/01/30 00:32:53;;;;;;;;;;;;;;;-144.99;100.00;52521.47;5058735;28;19978;-75
2023/01/30 00:35:20;;;;;;;;;;;;;;;-144.99;100.00;52523.50;5059349;28;20371;-77
2023/01/30 00:37:46;;;;;;;;;;;;;;;-144.99;100.00;52537.78;5057349;28;20762;-76
2023/01/30 00:40:13;;;;;;;;;;;;;;;-144.99;100.00;52533.69;5045584;28;19999;-76
2023/01/30 00:48:09;;;;;;;;;;;;;;;-144.99;100.00;52523.50;5054742;28;20607;-76
2023/01/30 00:50:42;;;;;;;;;;;;;;;-144.99;100.00;52543.91;5047099;28;20055;-79
2023/01/30 00:53:09;;;;;;;;;;;;;;;-144.99;100.00;52574.47;5049636;28;20033;-77
2023/01/30 00:55:36;;;;;;;;;;;;;;;-144.99;100.00;52533.69;5054074;28;20029;-76
2023/01/30 00:58:03;;;;;;;;;;;;;;;-144.99;100.00;52580.59;5042761;28;19933;-77
2023/01/30 01:00:30;;;;;;;;;;;;;;;-144.99;100.00;52541.84;5047260;28;20053;-78
2023/01/30 01:02:57;;;;;;;;;;;;;;;-144.99;100.00;52527.59;5066463;28;19986;-79
2023/01/30 01:05:23;;;;;;;;;;;;;;;-144.99;100.00;52533.69;5065349;28;19933;-77
2023/01/30 01:07:50;;;;;;;;;;;;;;;-144.99;100.00;52507.19;5058048;28;19939;-76
2023/01/30 01:10:17;;;;;;;;;;;;;;;-144.99;100.00;52545.94;4696742;28;9999742;-76
2023/01/30 01:12:43;;;;;;;;;;;;;;;-144.99;100.00;52529.63;5052655;28;20000;-76
2023/01/30 01:15:14;;;;;;;;;;;;;;;-144.99;100.00;52545.94;5044281;28;19940;-76
2023/01/30 01:17:41;;;;;;;;;;;;;;;-144.99;100.00;52513.31;5054972;28;20104;-76
2023/01/30 01:20:09;;;;;;;;;;;;;;;-144.99;100.00;52521.47;5056397;28;20023;-76
2023/01/30 01:22:35;;;;;;;;;;;;;;;-144.99;100.00;52525.56;5059404;28;20461;-76
2023/01/30 01:25:02;;;;;;;;;;;;;;;-144.99;100.00;52543.91;5044149;28;19941;-75
2023/01/30 01:27:28;;;;;;;;;;;;;;;-144.99;100.00;52529.63;5049364;28;20429;-75
2023/01/30 01:29:55;;;;;;;;;;;;;;;-144.99;100.00;52558.16;5074953;22;20405;-67
2023/01/30 01:32:23;;;;;;;;;;;;;;;-144.99;100.00;52499.06;5091168;28;20448;-68
2023/01/30 01:34:50;;;;;;;;;;;;;;;-144.99;100.00;52570.38;5093657;28;19936;-71
2023/01/30 01:37:16;;;;;;;;;;;;;;;-144.99;100.00;52517.41;5089070;28;19954;-71
2023/01/30 01:42:29;;;;;;;;;;;;;;;-144.99;100.00;52529.63;5071361;28;19951;-72
2023/01/30 01:45:00;;;;;;;;;;;;;;;-144.99;100.00;52572.44;5070508;28;19948;-72
2023/01/30 01:47:28;;;;;;;;;;;;;;;-144.99;100.00;52543.91;5059314;28;20470;-71
2023/01/30 01:49:55;;;;;;;;;;;;;;;-144.99;100.00;52562.25;5071658;28;20397;-71
2023/01/30 01:52:22;;;;;;;;;;;;;;;-144.99;100.00;52517.41;5068286;28;19946;-71
2023/01/30 01:54:50;;;;;;;;;;;;;;;-144.99;100.00;52521.47;5076936;28;19944;-71
2023/01/30 01:57:20;;;;;;;;;;;;;;;-144.99;100.00;52533.69;5071609;28;19981;-70
2023/01/30 01:59:49;;;;;;;;;;;;;;;-144.99;100.00;52521.47;5074089;28;20036;-70
2023/01/30 02:02:17;;;;;;;;;;;;;;;-144.99;100.00;52501.09;5077496;28;19994;-71
2023/01/30 02:05:05;;;;;;;;;;;;;;;-144.99;100.00;52499.06;5079547;28;19991;-69
2023/01/30 02:07:35;;;;;;;;;;;;;;;-144.99;100.00;52533.69;5061715;28;19946;-70
2023/01/30 02:10:02;;;;;;;;;;;;;;;-144.99;100.00;52566.31;5083735;28;19999;-69
2023/01/30 02:12:28;;;;;;;;;;;;;;;-144.99;100.00;52533.69;5087641;28;19931;-70
2023/01/30 02:14:56;;;;;;;;;;;;;;;-144.99;100.00;52570.38;5087568;28;19977;-70
2023/01/30 02:17:23;;;;;;;;;;;;;;;-144.99;100.00;52505.16;5074485;28;19954;-70
2023/01/30 02:19:55;;;;;;;;;;;;;;;-144.99;100.00;52541.84;5081740;28;20013;-70
2023/01/30 02:22:44;;;;;;;;;;;;;;;-144.99;100.00;52488.84;5082475;28;19967;-70
2023/01/30 02:25:35;;;;;;;;;;;;;;;-144.99;100.00;52537.78;5080228;28;19967;-70
2023/01/30 02:28:26;;;;;;;;;;;;;;;-144.99;100.00;52533.69;5078362;28;19996;-71
2023/01/30 02:31:12;;;;;;;;;;;;;;;-144.99;100.00;52517.41;5081522;28;20024;-70
2023/01/30 02:33:44;;;;;;;;;;;;;;;-144.99;100.00;52509.25;5073616;28;20318;-70
2023/01/30 02:36:16;;;;;;;;;;;;;;;-144.99;100.00;52570.38;5088511;28;19935;-70
2023/01/30 02:38:48;;;;;;;;;;;;;;;-144.99;100.00;52517.41;5077710;28;19998;-71
2023/01/30 02:41:20;;;;;;;;;;;;;;;-144.99;100.00;52574.47;5077096;28;20390;-70
2023/01/30 02:43:51;;;;;;;;;;;;;;;-144.99;100.00;52497.00;5072447;28;20362;-68
2023/01/30 02:46:22;;;;;;;;;;;;;;;-144.99;100.00;52521.47;5079711;28;20065;-68
2023/01/30 02:48:51;;;;;;;;;;;;;;;-144.99;100.00;52556.13;5077758;28;20347;-68
2023/01/30 02:51:19;;;;;;;;;;;;;;;-144.99;100.00;52509.25;5071289;28;19958;-68
2023/01/30 02:53:47;;;;;;;;;;;;;;;-144.99;100.00;52499.06;5079214;28;20020;-66
2023/01/30 02:56:14;;;;;;;;;;;;;;;-144.99;100.00;52497.00;5079239;28;20020;-66
2023/01/30 02:58:42;;;;;;;;;;;;;;;-144.99;100.00;52529.63;5081688;28;20031;-66
2023/01/30 03:01:26;;;;;;;;;;;;;;;-144.99;100.00;52566.31;5059519;28;19958;-66
2023/01/30 03:04:02;;;;;;;;;;;;;;;-144.99;100.00;52525.56;5075045;28;20045;-69
2023/01/30 03:06:33;;;;;;;;;;;;;;;-144.99;100.00;52497.00;5068785;28;19941;-68
2023/01/30 03:09:06;;;;;;;;;;;;;;;-144.99;100.00;52513.31;5080923;28;20007;-68
2023/01/30 03:11:37;;;;;;;;;;;;;;;-144.99;100.00;52492.94;5067284;28;20276;-68
2023/01/30 03:14:09;;;;;;;;;;;;;;;-144.99;100.00;52525.56;5068328;28;19960;-65
2023/01/30 03:16:38;;;;;;;;;;;;;;;-144.99;100.00;52525.56;5084105;28;20019;-66
2023/01/30 03:19:05;;;;;;;;;;;;;;;-144.99;100.00;52505.16;5067929;28;19979;-65
2023/01/30 03:21:32;;;;;;;;;;;;;;;-144.99;100.00;52515.34;5068013;28;20294;-65
2023/01/30 03:23:59;;;;;;;;;;;;;;;-144.99;100.00;52521.47;5078002;28;20002;-65
2023/01/30 03:26:28;;;;;;;;;;;;;;;-144.99;100.00;52529.63;5086228;28;19946;-64
2023/01/30 03:28:55;;;;;;;;;;;;;;;-144.99;100.00;52492.94;5091655;28;19965;-63
2023/01/30 03:31:21;;;;;;;;;;;;;;;-144.99;100.00;52541.84;5072346;28;19964;-62
2023/01/30 03:33:49;;;;;;;;;;;;;;;-144.99;100.00;52488.84;5086720;28;20008;-62
2023/01/30 03:36:16;;;;;;;;;;;;;;;-144.99;100.00;52513.31;5082604;28;19962;-63
2023/01/30 03:38:42;;;;;;;;;;;;;;;-144.99;100.00;52529.63;5081194;28;19944;-62
2023/01/30 03:41:09;;;;;;;;;;;;;;;-144.99;100.00;52554.09;5077014;28;19964;-62
2023/01/30 03:43:36;;;;;;;;;;;;;;;-144.99;100.00;52521.47;5075265;28;19983;-62
2023/01/30 03:46:02;;;;;;;;;;;;;;;-144.99;100.00;52513.31;5084565;28;19946;-62
2023/01/30 03:48:29;;;;;;;;;;;;;;;-144.99;100.00;52509.25;5086880;28;19936;-62
2023/01/30 03:50:57;;;;;;;;;;;;;;;-144.99;100.00;52492.94;5082544;28;20505;-62
2023/01/30 03:53:23;;;;;;;;;;;;;;;-144.99;100.00;52541.84;5066703;28;20251;-62
2023/01/30 03:55:50;;;;;;;;;;;;;;;-144.99;100.00;52543.91;5078594;28;19940;-63
2023/01/30 03:58:16;;;;;;;;;;;;;;;-144.99;100.00;52488.84;5084590;28;20694;-62
2023/01/30 04:00:43;;;;;;;;;;;;;;;-144.99;100.00;52509.25;5078032;28;20062;-63
2023/01/30 04:03:09;;;;;;;;;;;;;;;-144.99;100.00;52501.09;5081626;28;20308;-71
2023/01/30 04:05:36;;;;;;;;;;;;;;;-144.99;100.00;52527.59;5082305;28;19936;-71
2023/01/30 04:08:04;;;;;;;;;;;;;;;-144.99;100.00;52523.50;5071995;28;19943;-71
2023/01/30 04:10:30;;;;;;;;;;;;;;;-144.99;100.00;52533.69;5061348;28;19993;-72
2023/01/30 04:12:57;;;;;;;;;;;;;;;-144.99;100.00;52511.28;5075444;28;19977;-71
2023/01/30 04:15:23;;;;;;;;;;;;;;;-144.99;100.00;52552.03;5084780;28;19976;-72
2023/01/30 04:17:50;;;;;;;;;;;;;;;-144.99;100.00;52513.31;5068680;28;20503;-72
2023/01/30 04:20:16;;;;;;;;;;;;;;;-144.99;100.00;52521.47;5064638;28;21296;-71
2023/01/30 04:22:43;;;;;;;;;;;;;;;-144.99;100.00;52545.94;5061985;28;20408;-71
2023/01/30 04:25:11;;;;;;;;;;;;;;;-144.99;100.00;52519.44;5066225;28;19993;-72
2023/01/30 04:27:37;;;;;;;;;;;;;;;-144.99;100.00;52529.63;5068065;28;19979;-72
2023/01/30 04:30:04;;;;;;;;;;;;;;;-144.99;100.00;52554.09;5069331;28;19962;-72
2023/01/30 04:32:31;;;;;;;;;;;;;;;-144.99;100.00;52501.09;5062461;28;19984;-72
2023/01/30 04:34:57;;;;;;;;;;;;;;;-144.99;100.00;52525.56;5075125;28;20040;-72
2023/01/30 04:37:24;;;;;;;;;;;;;;;-144.99;100.00;52476.63;5071424;28;19998;-72
2023/01/30 04:39:50;;;;;;;;;;;;;;;-144.99;100.00;52521.47;5076648;28;20038;-65
2023/01/30 04:42:19;;;;;;;;;;;;;;;-144.99;100.00;52497.00;5076263;28;19996;-73
2023/01/30 04:44:45;;;;;;;;;;;;;;;-144.99;100.00;52503.13;5088034;28;19975;-73
2023/01/30 04:47:12;;;;;;;;;;;;;;;-144.99;100.00;52486.81;5076578;28;20399;-73
2023/01/30 04:49:38;;;;;;;;;;;;;;;-144.99;100.00;52537.78;5080564;28;19972;-73
2023/01/30 04:52:05;;;;;;;;;;;;;;;-144.99;100.00;52554.09;5069188;28;20449;-74
2023/01/30 04:54:31;;;;;;;;;;;;;;;-144.99;100.00;52505.16;5079135;28;19987;-74
2023/01/30 04:56:58;;;;;;;;;;;;;;;-144.99;100.00;52550.00;5068662;28;20432;-69
2023/01/30 04:59:26;;;;;;;;;;;;;;;-144.99;100.00;52509.25;5070424;28;20011;-69
2023/01/30 05:01:52;;;;;;;;;;;;;;;-144.99;100.00;52517.41;5074326;28;19987;-69
2023/01/30 05:04:19;;;;;;;;;;;;;;;-144.99;100.00;52517.41;5071633;28;19966;-70
2023/01/30 05:06:45;;;;;;;;;;;;;;;-144.99;100.00;52541.84;5070601;28;20390;-70
2023/01/30 05:09:12;;;;;;;;;;;;;;;-144.99;100.00;52550.00;5078562;28;20042;-74
2023/01/30 05:11:39;;;;;;;;;;;;;;;-144.99;100.00;52541.84;5070104;28;20090;-73
2023/01/30 05:14:05;;;;;;;;;;;;;;;-144.99;100.00;52525.56;5075948;28;19971;-74
2023/01/30 05:16:33;;;;;;;;;;;;;;;-144.99;100.00;52529.63;5082885;28;20003;-66
2023/01/30 05:19:00;;;;;;;;;;;;;;;-144.99;100.00;52527.59;5079188;28;19942;-64
2023/01/30 05:21:27;;;;;;;;;;;;;;;-144.99;100.00;52554.09;5068429;28;19989;-65
2023/01/30 05:23:54;;;;;;;;;;;;;;;-144.99;100.00;52509.25;5079379;28;19937;-64
2023/01/30 05:26:21;;;;;;;;;;;;;;;-144.99;100.00;52523.50;5067041;28;19968;-68
2023/01/30 05:28:50;;;;;;;;;;;;;;;-144.99;100.00;52547.97;5073299;28;19989;-70
2023/01/30 05:31:17;;;;;;;;;;;;;;;-144.99;100.00;52537.78;5067033;28;19963;-72
2023/01/30 05:33:46;;;;;;;;;;;;;;;-144.99;100.00;52517.41;5064717;28;20028;-70
2023/01/30 05:36:14;;;;;;;;;;;;;;;-144.99;100.00;52515.34;5062645;28;20047;-68
2023/01/30 05:38:42;;;;;;;;;;;;;;;-144.99;100.00;52517.41;5077248;28;20012;-69
2023/01/30 05:41:10;;;;;;;;;;;;;;;-144.99;100.00;52501.09;5067743;28;20000;-68
2023/01/30 05:43:36;;;;;;;;;;;;;;;-144.99;100.00;52488.84;5069380;28;20022;-69
2023/01/30 05:46:04;;;;;;;;;;;;;;;-144.99;100.00;52486.81;5083076;28;19981;-68
2023/01/30 05:48:30;;;;;;;;;;;;;;;-144.99;100.00;52517.41;5076473;28;19969;-69
2023/01/30 05:50:59;;;;;;;;;;;;;;;-144.99;100.00;52509.25;5070116;28;20335;-69
2023/01/30 05:53:28;;;;;;;;;;;;;;;-144.99;100.00;52501.09;5067140;28;20008;-67
2023/01/30 05:55:55;;;;;;;;;;;;;;;-144.99;100.00;52564.28;5071443;28;20059;-63
2023/01/30 05:58:21;;;;;;;;;;;;;;;-144.99;100.00;52521.47;5079004;28;20012;-68
2023/01/30 06:00:48;;;;;;;;;;;;;;;-144.99;100.00;52537.78;5055761;28;19965;-71
2023/01/30 06:03:14;;;;;;;;;;;;;;;-144.99;100.00;52545.94;5067209;28;20018;-71
2023/01/30 06:05:41;;;;;;;;;;;;;;;-144.99;100.00;52525.56;5050582;28;20034;-70
2023/01/30 06:08:09;;;;;;;;;;;;;;;-144.99;100.00;52545.94;5061508;28;19945;-70
2023/01/30 06:10:36;;;;;;;;;;;;;;;-144.99;100.00;52537.78;5051763;28;19992;-70
2023/01/30 06:13:02;;;;;;;;;;;;;;;-144.99;100.00;52541.84;5070639;28;20446;-69
2023/01/30 06:15:29;;;;;;;;;;;;;;;-144.99;100.00;52550.00;4712381;28;9999698;-69
2023/01/30 06:17:55;;;;;;;;;;;;;;;-144.99;100.00;52562.25;5064452;28;20005;-69
2023/01/30 06:20:22;;;;;;;;;;;;;;;-144.99;100.00;52517.41;5054444;28;19995;-69
2023/01/30 06:22:48;;;;;;;;;;;;;;;-144.99;100.00;52558.16;5074470;28;20009;-69
2023/01/30 06:25:16;;;;;;;;;;;;;;;-144.99;100.00;52525.56;5055907;28;19993;-69
2023/01/30 06:27:45;;;;;;;;;;;;;;;-144.99;100.00;52550.00;5071194;28;19993;-69
2023/01/30 06:30:12;;;;;;;;;;;;;;;-144.99;100.00;52558.16;5053857;28;20062;-69
2023/01/30 06:32:38;;;;;;;;;;;;;;;-144.99;100.00;52550.00;5065748;28;20035;-70
2023/01/30 06:35:05;;;;;;;;;;;;;;;-144.99;100.00;52578.53;5057663;28;19958;-69
2023/01/30 06:37:32;;;;;;;;;;;;;;;-144.99;100.00;52517.41;5053250;28;20056;-70
2023/01/30 06:39:58;;;;;;;;;;;;;;;-144.99;100.00;52556.13;5057512;28;19964;-69
2023/01/30 06:42:26;;;;;;;;;;;;;;;-144.99;100.00;52537.78;5055360;28;20485;-70
2023/01/30 06:44:53;;;;;;;;;;;;;;;-144.99;100.00;52529.63;5066316;28;20063;-69
2023/01/30 06:47:19;;;;;;;;;;;;;;;-144.99;99.94;52554.09;5044781;28;19948;-69
2023/01/30 06:49:48;;;;;;;;;;;;;;;-144.99;99.01;52550.00;5052209;28;20049;-68
2023/01/30 06:52:14;;;;;;;;;;;;;;;-144.99;98.58;52562.25;5060048;28;19974;-68
2023/01/30 06:54:40;;;;;;;;;;;;;;;-144.99;98.25;52517.41;5069470;28;20364;-68
2023/01/30 06:57:07;;;;;;;;;;;;;;;-144.99;98.73;52554.09;5058716;28;19984;-69
2023/01/30 06:59:35;;;;;;;;;;;;;;;-144.99;97.50;52570.38;5059675;28;19959;-69
2023/01/30 07:02:01;;;;;;;;;;;;;;;-144.99;97.60;52550.00;5050455;28;19989;-68
2023/01/30 07:04:28;;;;;;;;;;;;;;;-144.99;97.51;52533.69;5079525;28;20016;-69
2023/01/30 07:06:54;;;;;;;;;;;;;;;-144.99;97.28;52566.31;5070936;28;19939;-68
2023/01/30 07:09:21;;;;;;;;;;;;;;;-144.99;97.54;52497.00;5068053;28;21281;-69
2023/01/30 07:11:49;;;;;;;;;;;;;;;-144.99;98.65;52550.00;5060892;28;19976;-69
2023/01/30 07:14:15;;;;;;;;;;;;;;;-144.99;98.14;52562.25;5063397;28;19943;-69
2023/01/30 07:16:43;;;;;;;;;;;;;;;-144.99;97.86;52525.56;5065820;28;19992;-69
2023/01/30 07:19:09;;;;;;;;;;;;;;;-144.99;98.17;52525.56;5056374;28;20047;-69
2023/01/30 07:21:36;;;;;;;;;;;;;;;-144.99;98.41;52564.28;5052014;28;20347;-69
2023/01/30 07:24:02;;;;;;;;;;;;;;;-144.99;99.14;52586.69;5056309;28;20019;-69
2023/01/30 07:26:30;;;;;;;;;;;;;;;-144.99;98.56;52582.63;5080906;28;20472;-69
2023/01/30 07:28:56;;;;;;;;;;;;;;;-144.99;99.27;52531.66;5052858;28;20411;-69
2023/01/30 07:31:23;;;;;;;;;;;;;;;-144.99;98.50;52521.47;5054526;28;20152;-70
2023/01/30 07:33:50;;;;;;;;;;;;;;;-144.99;98.61;52529.63;5058115;28;20400;-69
2023/01/30 07:36:17;;;;;;;;;;;;;;;-144.99;99.41;52539.81;5082812;28;19995;-69
2023/01/30 07:38:43;;;;;;;;;;;;;;;-144.99;98.46;52562.25;5063342;28;19929;-69
2023/01/30 07:41:10;;;;;;;;;;;;;;;-144.99;98.25;52582.63;5047680;28;19997;-69
2023/01/30 07:43:36;;;;;;;;;;;;;;;-144.99;99.00;52517.41;5060643;28;20433;-69
2023/01/30 07:46:03;;;;;;;;;;;;;;;-144.99;98.98;52521.47;5075938;28;19952;-69
2023/01/30 07:48:30;;;;;;;;;;;;;;;-144.99;99.62;52578.53;5047771;28;19950;-69
2023/01/30 07:50:58;;;;;;;;;;;;;;;-144.99;100.00;52529.63;5062153;28;20021;-68
2023/01/30 07:53:24;;;;;;;;;;;;;;;-144.99;100.00;52547.97;5080375;28;20253;-68
2023/01/30 07:55:51;;;;;;;;;;;;;;;-144.99;100.00;52537.78;5057027;28;19979;-69
2023/01/30 07:58:17;;;;;;;;;;;;;;;-144.99;100.00;52539.81;5080485;22;19966;-75
2023/01/30 08:00:44;;;;;;;;;;;;;;;-144.99;100.00;52562.25;4731963;28;10000112;-74
2023/01/30 08:03:12;;;;;;;;;;;;;;;-144.99;100.00;52558.16;5090812;28;19938;-75
2023/01/30 08:05:38;;;;;;;;;;;;;;;-144.99;98.97;52537.78;5110930;28;19965;-76
2023/01/30 08:08:06;;;;;;;;;;;;;;;-144.99;97.34;52560.19;5101238;28;19962;-75
2023/01/30 08:10:33;;;;;;;;;;;;;;;-144.99;97.15;52545.94;5102829;28;19939;-77
2023/01/30 08:12:59;;;;;;;;;;;;;;;-144.99;97.23;52545.94;5092147;28;19939;-75
2023/01/30 08:15:26;;;;;;;;;;;;;;;-144.99;97.32;52513.31;5100751;28;19955;-75
2023/01/30 08:17:55;;;;;;;;;;;;;;;-144.99;98.12;52501.09;5099921;28;19924;-75
2023/01/30 08:20:22;;;;;;;;;;;;;;;-144.99;96.84;52541.84;5059168;28;19992;-74
2023/01/30 08:22:49;;;;;;;;;;;;;;;-144.99;95.70;52537.78;5071678;28;19946;-75
2023/01/30 08:25:17;;;;;;;;;;;;;;;-144.99;94.99;52533.69;5080164;28;20580;-75
2023/01/30 08:27:43;;;;;;;;;;;;;;;-144.99;94.51;52501.09;5077129;28;19956;-74
2023/01/30 08:30:10;;;;;;;;;;;;;;;-144.99;93.87;52550.00;5068706;28;20579;-75
2023/01/30 08:32:40;;;;;;;;;;;;;;;-144.99;93.24;52547.97;5077073;28;19992;-75
2023/01/30 08:35:07;;;;;;;;;;;;;;;-144.99;92.96;52533.69;5081993;28;19974;-77
2023/01/30 08:37:33;;;;;;;;;;;;;;;-144.99;92.79;52521.47;5091127;28;19974;-76
2023/01/30 08:40:00;;;;;;;;;;;;;;;-144.99;93.36;52537.78;5088108;28;19932;-76
2023/01/30 08:42:28;;;;;;;;;;;;;;;-144.99;93.55;52541.84;5084407;28;19940;-76
2023/01/30 08:44:54;;;;;;;;;;;;;;;-144.99;93.69;52558.16;5093433;28;19948;-76
2023/01/30 08:47:20;;;;;;;;;;;;;;;-144.99;92.27;52529.63;5089784;28;19959;-76
2023/01/30 08:49:47;;;;;;;;;;;;;;;-144.99;90.50;52511.28;5098487;28;20124;-76
2023/01/30 08:52:14;;;;;;;;;;;;;;;-144.99;90.43;52525.56;5097264;28;20016;-76
2023/01/30 08:54:40;;;;;;;;;;;;;;;-144.99;90.18;52541.84;5088356;28;19946;-75
2023/01/30 08:57:07;;;;;;;;;;;;;;;-144.99;90.04;52578.53;5084038;28;19988;-76
2023/01/30 08:59:34;;;;;;;;;;;;;;;-144.99;90.65;52550.00;5094106;28;20726;-76
2023/01/30 09:02:01;;;;;;;;;;;;;;;-144.99;90.11;52517.41;5089439;28;19968;-75
2023/01/30 09:04:29;;;;;;;;;;;;;;;-144.99;88.93;52525.56;5079640;28;20004;-76
2023/01/30 09:06:55;;;;;;;;;;;;;;;-144.99;88.62;52517.41;5067353;28;19955;-75
2023/01/30 09:09:22;;;;;;;;;;;;;;;-144.99;87.21;52517.41;5067025;28;19983;-76
2023/01/30 09:11:48;;;;;;;;;;;;;;;-144.99;86.77;52521.47;5074208;28;20656;-76
2023/01/30 09:14:18;;;;;;;;;;;;;;;-144.99;85.84;52494.97;5077374;28;19979;-76
2023/01/30 09:16:46;;;;;;;;;;;;;;;-144.99;84.46;52509.25;5079341;28;19954;-75
2023/01/30 09:19:13;;;;;;;;;;;;;;;-144.99;83.68;52476.63;5069849;28;19971;-76
2023/01/30 09:21:39;;;;;;;;;;;;;;;-144.99;84.45;52480.72;5079734;28;20024;-75
2023/01/30 09:24:06;;;;;;;;;;;;;;;-144.99;84.58;52501.09;5075830;28;19946;-77
2023/01/30 09:26:33;;;;;;;;;;;;;;;-144.99;83.79;52497.00;5075199;28;19984;-75
2023/01/30 09:29:00;;;;;;;;;;;;;;;-144.99;83.38;52480.72;5073179;28;19941;-75
2023/01/30 09:31:26;;;;;;;;;;;;;;;-144.99;84.17;52537.78;5064750;28;19942;-76
2023/01/30 09:33:54;;;;;;;;;;;;;;;-144.99;84.01;52484.78;5072684;28;20434;-76
2023/01/30 09:36:20;;;;;;;;;;;;;;;-144.99;83.34;52517.41;5079838;28;20431;-76
2023/01/30 09:38:47;;;;;;;;;;;;;;;-144.99;84.40;52541.84;5066980;28;20476;-77
2023/01/30 09:41:23;;;;;;;;;;;;;;;-144.99;87.01;52554.09;5075273;28;20014;-76
2023/01/30 09:43:58;;;;;;;;;;;;;;;-144.99;88.19;52537.78;5073391;28;19945;-76
2023/01/30 09:46:31;;;;;;;;;;;;;;;-144.99;91.04;52501.09;5067581;28;19980;-76
2023/01/30 09:49:03;;;;;;;;;;;;;;;-144.99;93.90;52537.78;5067288;28;20307;-76
2023/01/30 09:51:39;;;;;;;;;;;;;;;-144.99;94.54;52513.31;5065923;28;20737;-75
2023/01/30 09:54:19;;;;;;;;;;;;;;;-144.99;94.83;52537.78;5079978;28;19987;-76
2023/01/30 09:56:45;;;;;;;;;;;;;;;-144.99;96.87;52562.25;5068197;28;19940;-76
2023/01/30 09:59:19;;;;;;;;;;;;;;;-144.99;97.62;52541.84;5069579;28;20096;-75
2023/01/30 10:01:51;;;;;;;;;;;;;;;-144.99;98.58;52554.09;5067472;28;19979;-75
2023/01/30 10:04:24;;;;;;;;;;;;;;;-144.99;98.51;52562.25;5070523;28;21018;-75
2023/01/30 10:06:54;;;;;;;;;;;;;;;-144.99;98.28;52545.94;5067669;28;19980;-76
2023/01/30 10:09:28;;;;;;;;;;;;;;;-144.99;95.43;52543.91;5074120;28;20040;-75
2023/01/30 10:12:02;;;;;;;;;;;;;;;-144.99;94.31;52558.16;5078691;28;19977;-75
2023/01/30 10:14:39;;;;;;;;;;;;;;;-144.99;94.39;52552.03;5074699;28;19989;-75
2023/01/30 10:17:13;;;;;;;;;;;;;;;-144.99;94.78;52529.63;5071903;28;19991;-74
2023/01/30 10:19:50;;;;;;;;;;;;;;;-144.99;92.98;52523.50;5071841;28;20667;-75
2023/01/30 10:22:24;;;;;;;;;;;;;;;-144.99;92.40;52529.63;5074793;28;19983;-75
2023/01/30 10:24:59;;;;;;;;;;;;;;;-144.99;92.19;52533.69;5077984;28;20415;-75
2023/01/30 10:27:25;;;;;;;;;;;;;;;-144.99;89.93;52501.09;5072606;28;20785;-75
2023/01/30 10:29:55;;;;;;;;;;;;;;;-144.99;87.02;52480.72;5077571;28;19996;-75
2023/01/30 10:32:25;;;;;;;;;;;;;;;-144.99;83.68;52513.31;5077700;28;20473;-76
2023/01/30 10:34:54;;;;;;;;;;;;;;;-144.99;82.96;52515.34;5077644;28;20436;-76
2023/01/30 10:37:24;;;;;;;;;;;;;;;-144.99;82.61;52503.13;5076342;28;20048;-76
2023/01/30 10:39:55;;;;;;;;;;;;;;;-144.99;85.83;52541.84;5073433;28;20007;-75
2023/01/30 10:42:26;;;;;;;;;;;;;;;-144.99;100.00;52552.03;5073166;28;19964;-75
2023/01/30 10:44:55;;;;;;;;;;;;;;;-144.99;97.78;52533.69;5061943;28;19942;-75
2023/01/30 10:47:29;;;;;;;;;;;;;;;-144.99;99.32;52547.97;5073815;28;20392;-75
2023/01/30 10:50:01;;;;;;;;;;;;;;;-144.99;99.18;52558.16;5079733;28;20004;-75
2023/01/30 10:52:36;;;;;;;;;;;;;;;-144.99;98.25;52566.31;5065062;28;20308;-75
2023/01/30 10:55:07;;;;;;;;;;;;;;;-144.99;99.01;52574.47;5078484;28;20459;-75
2023/01/30 10:57:50;;;;;;;;;;;;;;;-144.99;99.12;52566.31;5075495;28;20072;-74
2023/01/30 11:00:21;;;;;;;;;;;;;;;-144.99;99.31;52615.25;5078837;28;19957;-76
2023/01/30 11:02:59;;;;;;;;;;;;;;;-144.99;98.38;52541.84;5070462;28;19949;-75
2023/01/30 11:05:30;;;;;;;;;;;;;;;-144.99;99.22;52570.38;5070604;28;20405;-75
2023/01/30 11:07:56;;;;;;;;;;;;;;;-144.99;98.72;52533.69;5070143;28;20459;-75
2023/01/30 11:10:24;;;;;;;;;;;;;;;-144.99;100.00;52507.19;5078645;28;20432;-76
2023/01/30 11:12:53;;;;;;;;;;;;;;;-144.99;99.66;52574.47;5079849;28;19993;-76
2023/01/30 11:15:23;;;;;;;;;;;;;;;-144.99;99.95;52570.38;5086736;28;20031;-75
2023/01/30 11:17:50;;;;;;;;;;;;;;;-144.99;99.51;52578.53;5067726;28;19975;-76
2023/01/30 11:20:18;;;;;;;;;;;;;;;-144.99;98.87;52578.53;5075234;28;20012;-76
2023/01/30 11:22:50;;;;;;;;;;;;;;;-144.99;99.33;52547.97;5082010;28;19940;-76
2023/01/30 11:25:18;;;;;;;;;;;;;;;-144.99;99.45;52578.53;5081686;28;19946;-76
2023/01/30 11:27:51;;;;;;;;;;;;;;;-144.99;99.23;52529.63;5082471;28;19971;-76
2023/01/30 11:30:19;;;;;;;;;;;;;;;-144.99;98.84;52468.47;5096166;28;19958;-77
2023/01/30 11:32:47;;;;;;;;;;;;;;;-144.99;97.24;52472.56;5092390;28;19946;-76
2023/01/30 11:35:24;;;;;;;;;;;;;;;-144.99;94.48;52488.84;5077154;28;20445;-76
2023/01/30 11:37:53;;;;;;;;;;;;;;;-144.99;89.41;52529.63;5080065;28;20014;-76
2023/01/30 11:40:24;;;;;;;;;;;;;;;-144.99;87.85;52505.16;5070359;28;19940;-76
2023/01/30 11:42:51;;;;;;;;;;;;;;;-144.99;87.76;52492.94;5067989;28;20400;-75
2023/01/30 11:45:18;;;;;;;;;;;;;;;-144.99;88.11;52537.78;5069082;28;20031;-76
2023/01/30 11:47:49;;;;;;;;;;;;;;;-144.99;87.58;52509.25;5069843;28;20006;-76
2023/01/30 11:50:17;;;;;;;;;;;;;;;-144.99;88.32;52523.50;5080202;28;19990;-76
2023/01/30 11:52:44;;;;;;;;;;;;;;;-144.99;88.74;52370.63;5075137;28;20032;-77
2023/01/30 11:55:13;;;;;;;;;;;;;;;-144.99;84.15;52511.28;5098581;28;19949;-77
2023/01/30 11:57:41;;;;;;;;;;;;;;;-144.99;83.54;52525.56;5094620;28;19962;-76
2023/01/30 12:00:14;;;;;;;;;;;;;;;-144.99;85.85;52517.41;5097024;28;19955;-75
2023/01/30 12:02:43;;;;;;;;;;;;;;;-144.99;88.49;52550.00;5089141;28;19942;-75
2023/01/30 12:05:29;;;;;;;;;;;;;;;-144.99;88.72;52545.94;5093223;28;20024;-76
2023/01/30 12:08:11;;;;;;;;;;;;;;;-144.99;90.90;52529.63;5082011;28;19962;-76
2023/01/30 12:10:42;;;;;;;;;;;;;;;-144.99;94.67;52527.59;5071976;28;19974;-76
2023/01/30 12:13:14;;;;;;;;;;;;;;;-144.99;96.16;52560.19;5082200;28;20308;-76
2023/01/30 12:15:44;;;;;;;;;;;;;;;-144.99;96.80;52545.94;5084450;28;20772;-76
2023/01/30 12:18:13;;;;;;;;;;;;;;;-144.99;95.74;52541.84;5073691;28;19962;-76
2023/01/30 12:20:46;;;;;;;;;;;;;;;-144.99;95.35;52448.09;5069106;28;19996;-77
2023/01/30 12:23:15;;;;;;;;;;;;;;;-144.99;90.83;52484.78;5083023;28;20361;-76
2023/01/30 12:25:48;;;;;;;;;;;;;;;-144.99;85.26;52529.63;5083588;28;19977;-77
2023/01/30 12:28:18;;;;;;;;;;;;;;;-144.99;84.19;52537.78;5092869;28;19960;-77
2023/01/30 12:30:48;;;;;;;;;;;;;;;-144.99;85.05;52364.53;5085039;28;19956;-78
2023/01/30 12:33:15;;;;;;;;;;;;;;;-144.99;80.54;52501.09;5082684;28;20357;-76
2023/01/30 12:35:47;;;;;;;;;;;;;;;-144.99;76.31;52482.75;5081573;28;20032;-76